GO66 weather

Dodji Airport
Dodji, Louga Region, Senegal

Public forecast

Using degrees Celsius for public forecast. Weather courtesy of forecast.io.

METAR (pilot weather report)

Closest report is Podor Airport, 68.4 nm (126.7 km) N. Retrieved 2019/09/23 19:00 UTC (19 minutes ago):

GOSP 231900Z 24002KT 9999 FEW013TCU 35/25 Q1010

TAF (pilot weather forecast)

Closest forecast is Saint Louis Airport, 92.1 nm (170.6 km) WNW. Retrieved 2019/09/23 18:27 UTC (52 minutes ago):

TAF GOSS 231730Z 2318/2418 26008KT 9999 SCT010 PROB30 TEMPO 2320/2324 4500 TSRA BKN010 FEW020CB